createdAt,value
2018-12-04T00:00:21.113Z,106.43
2018-12-04T00:02:53.164Z,102.33
2018-12-04T00:05:25.509Z,102.73
2018-12-04T00:07:57.045Z,104.50
2018-12-04T00:10:26.885Z,104.63
2018-12-04T00:12:57.152Z,107.80
2018-12-04T00:15:26.907Z,108.13
2018-12-04T00:17:58.220Z,101.90
2018-12-04T00:20:27.761Z,98.73
2018-12-04T00:23:02.021Z,97.27
2018-12-04T00:25:33.293Z,104.83
2018-12-04T00:28:03.858Z,111.10
2018-12-04T00:30:36.253Z,100.40
2018-12-04T00:33:07.435Z,102.50
2018-12-04T00:35:39.292Z,111.47
2018-12-04T00:38:11.294Z,107.50
2018-12-04T00:40:42.676Z,106.33
2018-12-04T00:43:12.246Z,99.20
2018-12-04T00:45:42.420Z,115.97
2018-12-04T00:48:13.293Z,103.40
2018-12-04T00:50:44.480Z,107.57
2018-12-04T00:53:14.996Z,105.10
2018-12-04T00:55:45.436Z,109.83
2018-12-04T00:58:19.208Z,107.07
2018-12-04T01:00:49.453Z,107.03
2018-12-04T01:03:20.451Z,106.70
2018-12-04T01:05:51.534Z,102.03
2018-12-04T01:08:21.385Z,99.43
2018-12-04T01:10:52.569Z,111.90
2018-12-04T01:13:23.556Z,104.80
2018-12-04T01:15:53.553Z,97.90
2018-12-04T01:18:25.406Z,104.17
2018-12-04T01:20:55.640Z,105.07
2018-12-04T01:23:26.480Z,113.60
2018-12-04T01:25:57.508Z,108.13
2018-12-04T01:28:27.124Z,99.07
2018-12-04T01:30:58.574Z,105.00
2018-12-04T01:33:30.482Z,101.13
2018-12-04T01:36:02.496Z,102.80
2018-12-04T01:38:33.592Z,104.10
2018-12-04T01:41:03.412Z,108.07
2018-12-04T01:43:34.601Z,105.67
2018-12-04T01:46:04.495Z,111.90
2018-12-04T01:48:35.700Z,108.23
2018-12-04T01:51:05.858Z,108.70
2018-12-04T01:53:35.721Z,103.40
2018-12-04T01:56:06.662Z,106.57
2018-12-04T01:58:37.499Z,98.50
2018-12-04T02:01:07.792Z,103.70
2018-12-04T02:03:37.745Z,96.17
2018-12-04T02:06:10.077Z,111.30
2018-12-04T02:08:51.938Z,102.93
2018-12-04T02:11:36.383Z,92.53
2018-12-04T02:14:11.961Z,97.80
2018-12-04T02:16:51.243Z,94.13
2018-12-04T02:19:26.598Z,89.07
2018-12-04T02:22:06.353Z,83.80
2018-12-04T02:24:37.348Z,92.23
2018-12-04T02:27:10.961Z,93.43
2018-12-04T02:29:41.691Z,90.10
2018-12-04T02:32:11.692Z,77.63
2018-12-04T02:34:42.698Z,69.73
2018-12-04T02:37:14.676Z,22.47
2018-12-04T02:39:46.718Z,6.57
2018-12-04T02:42:22.097Z,3.70
2018-12-04T02:44:51.629Z,1.10
2018-12-04T02:47:26.898Z,0.63
2018-12-04T02:49:56.717Z,0.77
2018-12-04T02:52:27.109Z,1.20
2018-12-04T02:54:57.970Z,0.60
2018-12-04T02:57:27.557Z,0.60
2018-12-04T03:00:02.331Z,0.80
2018-12-04T03:02:32.815Z,0.70
2018-12-04T03:05:02.876Z,0.77
2018-12-04T03:07:33.962Z,0.60
2018-12-04T03:10:04.135Z,0.60
2018-12-04T03:12:34.020Z,1.63
2018-12-04T03:15:04.382Z,0.80
2018-12-04T03:17:33.977Z,1.17
2018-12-04T03:20:05.090Z,0.60
2018-12-04T03:22:37.225Z,0.60
2018-12-04T03:25:08.330Z,0.67
2018-12-04T03:27:39.370Z,0.67
2018-12-04T03:30:09.183Z,0.70
2018-12-04T03:32:40.326Z,0.70
2018-12-04T03:35:10.953Z,0.70
2018-12-04T03:37:41.876Z,1.03
2018-12-04T03:40:12.142Z,3.43
2018-12-04T03:42:42.144Z,0.60
2018-12-04T03:45:14.046Z,0.70
2018-12-04T03:47:44.333Z,0.77
2018-12-04T03:50:15.083Z,0.63
2018-12-04T03:52:46.133Z,0.60
2018-12-04T03:55:16.162Z,0.70
2018-12-04T03:57:47.203Z,0.60
2018-12-04T04:00:17.215Z,2.70
2018-12-04T04:02:48.266Z,0.60
2018-12-04T04:05:20.286Z,0.60
2018-12-04T04:07:52.222Z,0.70
2018-12-04T04:10:22.232Z,0.60
2018-12-04T04:12:53.302Z,1.97
2018-12-04T04:15:23.289Z,0.80
2018-12-04T04:17:54.367Z,1.57
2018-12-04T04:20:24.371Z,2.60
2018-12-04T04:22:55.202Z,1.10
2018-12-04T04:25:24.745Z,2.60
2018-12-04T04:27:56.168Z,2.80
2018-12-04T04:30:27.167Z,0.87
2018-12-04T04:32:57.272Z,0.77
2018-12-04T04:35:27.604Z,2.17
2018-12-04T04:37:58.401Z,0.73
2018-12-04T04:40:27.899Z,1.60
2018-12-04T04:43:05.947Z,1.80
2018-12-04T04:45:36.343Z,1.37
2018-12-04T04:48:07.434Z,0.77
2018-12-04T04:50:39.515Z,0.90
2018-12-04T04:53:11.315Z,0.93
2018-12-04T04:55:42.472Z,1.53
2018-12-04T04:58:13.901Z,6.30
2018-12-04T05:00:44.477Z,1.27
2018-12-04T05:03:14.457Z,1.07
2018-12-04T05:05:45.333Z,0.87
2018-12-04T05:08:16.462Z,1.20
2018-12-04T05:10:47.626Z,6.53
2018-12-04T05:13:17.493Z,0.80
2018-12-04T05:15:48.520Z,0.80
2018-12-04T05:18:18.550Z,0.93
2018-12-04T05:20:49.584Z,1.00
2018-12-04T05:23:21.520Z,0.83
2018-12-04T05:25:53.563Z,1.00
2018-12-04T05:28:24.156Z,0.70
2018-12-04T05:30:54.646Z,1.23
2018-12-04T05:33:25.444Z,0.90
2018-12-04T05:35:55.726Z,1.90
2018-12-04T05:38:26.474Z,2.00
2018-12-04T05:40:56.692Z,1.13
2018-12-04T05:43:27.240Z,2.00
2018-12-04T05:45:58.349Z,1.33
2018-12-04T05:48:27.876Z,1.00
2018-12-04T05:50:59.658Z,2.00
2018-12-04T05:53:35.247Z,1.23
2018-12-04T05:56:15.673Z,1.63
2018-12-04T05:58:46.725Z,5.17
2018-12-04T06:01:16.737Z,1.03
2018-12-04T06:03:48.004Z,1.70
2018-12-04T06:06:18.566Z,1.50
2018-12-04T06:08:49.642Z,1.30
2018-12-04T06:11:20.592Z,2.93
2018-12-04T06:13:50.725Z,1.50
2018-12-04T06:16:21.785Z,3.80
2018-12-04T06:18:52.877Z,2.43
2018-12-04T06:21:23.568Z,1.40
2018-12-04T06:23:53.683Z,3.63
2018-12-04T06:26:29.126Z,3.30
2018-12-04T06:29:00.961Z,3.20
2018-12-04T06:31:30.941Z,6.00
2018-12-04T06:34:01.015Z,1.70
2018-12-04T06:36:30.841Z,1.47
2018-12-04T06:39:01.050Z,4.40
2018-12-04T06:41:31.044Z,2.30
2018-12-04T06:44:01.930Z,9.27
2018-12-04T06:46:32.164Z,2.03
2018-12-04T06:49:02.945Z,2.50
2018-12-04T06:51:34.050Z,2.87
2018-12-04T06:54:03.787Z,2.23
2018-12-04T06:56:35.334Z,1.50
2018-12-04T06:59:04.852Z,5.73
2018-12-04T07:01:36.942Z,1.50
2018-12-04T07:04:06.961Z,1.30
2018-12-04T07:06:36.978Z,2.53
2018-12-04T07:09:09.069Z,1.20
2018-12-04T07:11:39.200Z,1.73
2018-12-04T07:14:09.083Z,1.70
2018-12-04T07:16:40.167Z,2.33
2018-12-04T07:19:11.023Z,1.53
2018-12-04T07:21:42.096Z,1.40
2018-12-04T07:24:13.082Z,1.50
2018-12-04T07:26:42.971Z,1.40
2018-12-04T07:29:14.014Z,1.27
2018-12-04T07:31:45.264Z,1.60
2018-12-04T07:34:15.216Z,2.00
2018-12-04T07:36:46.190Z,1.33
2018-12-04T07:39:16.184Z,5.10
2018-12-04T07:41:47.300Z,6.50
2018-12-04T07:44:18.248Z,1.20
2018-12-04T07:46:48.289Z,2.33
2018-12-04T07:49:19.745Z,1.47
2018-12-04T07:51:52.247Z,2.47
2018-12-04T07:54:23.230Z,2.63
2018-12-04T07:56:54.318Z,1.93
2018-12-04T07:59:24.427Z,1.43
2018-12-04T08:01:55.400Z,5.57
2018-12-04T08:04:25.427Z,1.70
2018-12-04T08:06:56.253Z,1.40
2018-12-04T08:09:27.356Z,3.93
2018-12-04T08:11:58.583Z,3.13
2018-12-04T08:14:28.237Z,2.20
2018-12-04T08:16:59.316Z,2.10
2018-12-04T08:19:31.670Z,1.57
2018-12-04T08:22:01.703Z,1.57
2018-12-04T08:24:37.273Z,8.20
2018-12-04T08:27:10.689Z,1.43
2018-12-04T08:29:40.404Z,1.90
2018-12-04T08:32:10.422Z,3.43
2018-12-04T08:34:42.334Z,1.53
2018-12-04T08:37:15.270Z,1.40
2018-12-04T08:39:48.418Z,3.07
2018-12-04T08:42:18.457Z,2.43
2018-12-04T08:44:49.604Z,2.90
2018-12-04T08:47:19.668Z,1.40
2018-12-04T08:49:50.492Z,2.57
2018-12-04T08:52:20.521Z,1.70
2018-12-04T08:54:54.763Z,2.53
2018-12-04T09:00:05.726Z,1.87
2018-12-04T09:02:35.515Z,3.20
2018-12-04T09:05:07.266Z,1.20
2018-12-04T09:07:37.024Z,1.37
2018-12-04T09:10:07.617Z,1.87
2018-12-04T09:12:38.136Z,1.37
2018-12-04T09:15:16.048Z,1.37
2018-12-04T09:17:45.734Z,1.93
2018-12-04T09:20:19.610Z,3.73
2018-12-04T09:22:50.935Z,7.13
2018-12-04T09:25:20.678Z,1.60
2018-12-04T09:27:52.076Z,2.97
2018-12-04T09:30:22.611Z,5.20
2018-12-04T09:32:54.909Z,3.00
2018-12-04T09:35:26.625Z,3.17
2018-12-04T09:37:57.622Z,3.27
2018-12-04T09:40:27.833Z,5.07
2018-12-04T09:43:04.171Z,1.40
2018-12-04T09:45:32.992Z,3.17
2018-12-04T09:48:03.462Z,1.77
2018-12-04T09:50:35.643Z,1.77
2018-12-04T09:53:07.848Z,2.10
2018-12-04T09:55:37.827Z,4.17
2018-12-04T09:58:08.981Z,2.23
2018-12-04T10:00:39.744Z,1.83
2018-12-04T10:03:09.977Z,2.80
2018-12-04T10:05:39.815Z,5.70
2018-12-04T10:08:12.089Z,2.30
2018-12-04T10:10:41.910Z,2.43
2018-12-04T10:13:12.732Z,4.23
2018-12-04T10:15:42.904Z,3.73
2018-12-04T10:18:12.934Z,1.63
2018-12-04T10:20:44.158Z,2.97
2018-12-04T10:23:14.726Z,5.77
2018-12-04T10:25:51.807Z,3.63
2018-12-04T10:28:22.093Z,3.80
2018-12-04T10:30:59.321Z,3.93
2018-12-04T10:33:29.772Z,2.00
2018-12-04T10:36:00.005Z,3.47
2018-12-04T10:38:31.105Z,1.37
2018-12-04T10:41:01.979Z,1.33
2018-12-04T10:43:32.687Z,2.30
2018-12-04T10:46:04.141Z,1.20
2018-12-04T10:48:34.088Z,3.73
2018-12-04T10:51:05.190Z,1.43
2018-12-04T10:53:37.047Z,3.13
2018-12-04T10:56:10.515Z,1.40
2018-12-04T10:58:43.856Z,5.57
2018-12-04T11:01:21.102Z,2.40
2018-12-04T11:03:53.453Z,2.83
2018-12-04T11:06:23.299Z,1.40
2018-12-04T11:08:54.395Z,4.37
2018-12-04T11:11:25.078Z,2.40
2018-12-04T11:13:58.515Z,2.87
2018-12-04T11:16:28.104Z,1.57
2018-12-04T11:19:00.581Z,6.80
2018-12-04T11:21:31.235Z,12.17
2018-12-04T11:24:06.808Z,7.77
2018-12-04T11:26:39.590Z,4.43
2018-12-04T11:29:11.342Z,2.17
2018-12-04T11:31:43.077Z,2.77
2018-12-04T11:34:13.821Z,4.03
2018-12-04T11:36:47.183Z,2.07
2018-12-04T11:39:17.255Z,5.03
2018-12-04T11:41:48.583Z,3.13
2018-12-04T11:44:20.081Z,4.30
2018-12-04T11:46:50.261Z,2.50
2018-12-04T11:49:20.892Z,2.43
2018-12-04T11:51:51.313Z,1.87
2018-12-04T11:54:23.425Z,2.00
2018-12-04T11:56:53.398Z,2.50
2018-12-04T11:59:23.352Z,2.60
2018-12-04T12:01:54.502Z,1.93
2018-12-04T12:04:24.480Z,1.63
2018-12-04T12:06:55.569Z,2.13
2018-12-04T12:09:25.456Z,1.57
2018-12-04T12:11:56.482Z,3.67
2018-12-04T12:14:27.243Z,4.30
2018-12-04T12:16:57.857Z,2.13
2018-12-04T12:19:27.978Z,3.13
2018-12-04T12:21:58.540Z,5.77
2018-12-04T12:24:28.229Z,2.53
2018-12-04T12:27:00.372Z,1.80
2018-12-04T12:29:31.620Z,1.70
2018-12-04T12:32:01.641Z,1.97
2018-12-04T12:34:32.500Z,3.10
2018-12-04T12:37:02.674Z,2.13
2018-12-04T12:39:33.904Z,4.50
2018-12-04T12:42:05.083Z,2.00
2018-12-04T12:44:35.830Z,2.90
2018-12-04T12:47:06.276Z,3.83
2018-12-04T12:49:37.001Z,3.50
2018-12-04T12:52:07.716Z,1.40
2018-12-04T12:54:37.535Z,2.37
2018-12-04T12:57:09.547Z,2.63
2018-12-04T12:59:40.220Z,3.20
2018-12-04T13:02:10.634Z,6.30
2018-12-04T13:04:41.604Z,3.10
2018-12-04T13:07:11.785Z,3.07
2018-12-04T13:09:42.669Z,4.70
2018-12-04T13:12:13.340Z,8.60
2018-12-04T13:14:46.382Z,3.70
2018-12-04T13:17:17.686Z,5.17
2018-12-04T13:19:48.535Z,2.30
2018-12-04T13:22:18.520Z,3.80
2018-12-04T13:24:49.719Z,2.23
2018-12-04T13:27:19.719Z,1.70
2018-12-04T13:29:50.912Z,2.07
2018-12-04T13:32:27.319Z,1.63
2018-12-04T13:34:59.109Z,1.90
2018-12-04T13:37:30.772Z,1.60
2018-12-04T13:40:08.758Z,1.60
2018-12-04T13:42:41.183Z,2.60
2018-12-04T13:45:13.012Z,2.60
2018-12-04T13:47:43.133Z,1.83
2018-12-04T13:50:13.830Z,1.83
2018-12-04T13:52:44.973Z,2.90
2018-12-04T13:55:16.221Z,5.47
2018-12-04T13:57:50.683Z,1.73
2018-12-04T14:00:18.901Z,16.07
2018-12-04T14:02:54.092Z,3.83
2018-12-04T14:05:28.934Z,10.57
2018-12-04T14:08:00.132Z,3.60
2018-12-04T14:10:33.759Z,2.67
2018-12-04T14:13:03.985Z,2.33
2018-12-04T14:15:35.076Z,1.93
2018-12-04T14:18:05.216Z,2.40
2018-12-04T14:20:36.056Z,1.97
2018-12-04T14:23:09.096Z,7.50
2018-12-04T14:25:41.677Z,3.83
2018-12-04T14:28:15.244Z,2.40
2018-12-04T14:30:52.809Z,2.23
2018-12-04T14:33:26.280Z,2.40
2018-12-04T14:35:57.010Z,2.00
2018-12-04T14:38:28.262Z,3.33
2018-12-04T14:40:57.980Z,2.37
2018-12-04T14:43:28.025Z,2.50
2018-12-04T14:45:59.309Z,2.27
2018-12-04T14:48:28.981Z,3.10
2018-12-04T14:51:01.106Z,3.00
2018-12-04T14:53:31.158Z,3.77
2018-12-04T14:56:03.141Z,2.90
2018-12-04T14:58:33.286Z,7.20
2018-12-04T15:01:02.952Z,7.90
2018-12-04T15:03:34.241Z,3.37
2018-12-04T15:06:04.453Z,4.40
2018-12-04T15:08:36.205Z,2.47
2018-12-04T15:11:14.805Z,3.40
2018-12-04T15:13:47.376Z,3.67
2018-12-04T15:16:17.235Z,5.10
2018-12-04T15:18:47.222Z,5.63
2018-12-04T15:21:17.799Z,5.03
2018-12-04T15:23:48.152Z,6.87
2018-12-04T15:26:18.809Z,7.20
2018-12-04T15:28:49.747Z,6.70
2018-12-04T15:31:19.288Z,3.80
2018-12-04T15:33:50.214Z,4.83
2018-12-04T15:36:20.894Z,3.33
2018-12-04T15:38:51.355Z,5.23
2018-12-04T15:41:22.022Z,4.70
2018-12-04T15:43:52.426Z,9.70
2018-12-04T15:46:22.149Z,5.00
2018-12-04T15:48:53.526Z,19.23
2018-12-04T15:51:24.108Z,11.40
2018-12-04T15:53:54.826Z,7.20
2018-12-04T15:56:25.372Z,8.60
2018-12-04T15:58:55.468Z,8.47
2018-12-04T16:01:26.853Z,6.20
2018-12-04T16:03:58.104Z,3.30
2018-12-04T16:06:31.113Z,5.93
2018-12-04T16:09:01.556Z,4.93
2018-12-04T16:11:32.537Z,6.80
2018-12-04T16:14:02.456Z,3.77
2018-12-04T16:16:33.313Z,3.57
2018-12-04T16:19:04.742Z,6.30
2018-12-04T16:21:34.388Z,5.37
2018-12-04T16:24:05.692Z,7.83
2018-12-04T16:26:36.744Z,4.73
2018-12-04T16:29:07.402Z,4.83
2018-12-04T16:31:37.585Z,9.40
2018-12-04T16:34:08.594Z,4.00
2018-12-04T16:36:39.696Z,5.53
2018-12-04T16:39:10.026Z,3.93
2018-12-04T16:41:40.594Z,4.93
2018-12-04T16:44:10.616Z,6.63
2018-12-04T16:46:42.366Z,7.47
2018-12-04T16:49:12.631Z,6.17
2018-12-04T16:51:42.679Z,6.33
2018-12-04T16:54:13.885Z,5.70
2018-12-04T16:56:43.693Z,11.90
2018-12-04T16:59:14.787Z,5.77
2018-12-04T17:01:45.695Z,4.90
2018-12-04T17:04:15.667Z,5.07
2018-12-04T17:06:46.985Z,11.10
2018-12-04T17:09:17.887Z,6.13
2018-12-04T17:11:48.591Z,4.13
2018-12-04T17:14:18.834Z,4.00
2018-12-04T17:16:50.057Z,4.23
2018-12-04T17:19:19.980Z,5.23
2018-12-04T17:21:50.930Z,3.67
2018-12-04T17:24:21.832Z,8.97
2018-12-04T17:26:52.198Z,5.57
2018-12-04T17:29:22.781Z,4.37
2018-12-04T17:31:56.564Z,5.20
2018-12-04T17:34:28.104Z,5.33
2018-12-04T17:36:58.033Z,3.97
2018-12-04T17:39:28.504Z,4.37
2018-12-04T17:41:59.854Z,5.43
2018-12-04T17:44:31.781Z,4.33
2018-12-04T17:47:04.021Z,3.80
2018-12-04T17:49:35.220Z,3.87
2018-12-04T17:52:05.543Z,3.93
2018-12-04T17:54:37.999Z,5.57
2018-12-04T17:57:08.964Z,4.30
2018-12-04T17:59:40.963Z,3.70
2018-12-04T18:02:13.160Z,6.43
2018-12-04T18:04:43.802Z,3.83
2018-12-04T18:07:13.909Z,3.87
2018-12-04T18:09:44.992Z,3.80
2018-12-04T18:12:15.958Z,5.30
2018-12-04T18:14:46.184Z,3.67
2018-12-04T18:17:17.100Z,3.90
2018-12-04T18:19:47.817Z,8.53
2018-12-04T18:22:18.016Z,4.30
2018-12-04T18:24:49.385Z,4.50
2018-12-04T18:27:20.074Z,4.20
2018-12-04T18:29:50.821Z,4.13
2018-12-04T18:32:21.577Z,6.87
2018-12-04T18:34:52.937Z,7.93
2018-12-04T18:37:23.081Z,4.20
2018-12-04T18:39:53.499Z,4.57
2018-12-04T18:42:24.018Z,4.33
2018-12-04T18:44:55.125Z,5.77
2018-12-04T18:47:25.402Z,5.27
2018-12-04T18:49:56.232Z,4.17
2018-12-04T18:52:27.105Z,6.17
2018-12-04T18:55:03.080Z,4.90
2018-12-04T18:57:35.823Z,8.20
2018-12-04T19:00:13.192Z,4.13
2018-12-04T19:02:44.340Z,3.53
2018-12-04T19:05:15.688Z,3.43
2018-12-04T19:07:45.421Z,9.50
2018-12-04T19:10:15.237Z,13.47
2018-12-04T19:12:46.289Z,7.43
2018-12-04T19:15:16.413Z,4.60
2018-12-04T19:17:47.389Z,3.50
2018-12-04T19:20:18.609Z,3.97
2018-12-04T19:22:48.505Z,6.00
2018-12-04T19:25:19.334Z,5.07
2018-12-04T19:27:53.363Z,4.00
2018-12-04T19:30:24.522Z,5.77
2018-12-04T19:35:37.643Z,4.77
2018-12-04T19:38:07.846Z,7.17
2018-12-04T19:40:41.150Z,4.70
2018-12-04T19:43:12.477Z,4.30
2018-12-04T19:45:42.528Z,19.43
2018-12-04T19:48:13.454Z,5.53
2018-12-04T19:50:43.830Z,5.73
2018-12-04T19:53:14.482Z,6.87
2018-12-04T19:55:48.320Z,4.53
2018-12-04T19:58:19.423Z,4.33
2018-12-04T20:00:49.581Z,5.23
2018-12-04T20:03:20.639Z,4.70
2018-12-04T20:05:50.862Z,5.00
2018-12-04T20:08:21.686Z,4.87
2018-12-04T20:10:51.676Z,3.67
2018-12-04T20:13:23.451Z,5.13
2018-12-04T20:15:53.995Z,3.60
2018-12-04T20:18:26.752Z,4.27
2018-12-04T20:20:58.712Z,4.03
2018-12-04T20:23:28.831Z,7.40
2018-12-04T20:26:05.275Z,5.17
2018-12-04T20:28:35.555Z,5.53
2018-12-04T20:31:08.714Z,6.33
2018-12-04T20:33:40.802Z,4.87
2018-12-04T20:36:12.783Z,5.57
2018-12-04T20:38:45.321Z,9.87
2018-12-04T20:41:22.303Z,7.03
2018-12-04T20:43:54.745Z,2.70
2018-12-04T20:46:26.073Z,10.20
2018-12-04T20:48:57.875Z,6.77
2018-12-04T20:51:27.496Z,4.73
2018-12-04T20:53:57.842Z,4.03
2018-12-04T20:56:29.927Z,9.73
2018-12-04T20:58:59.597Z,4.73
2018-12-04T21:01:29.237Z,5.90
2018-12-04T21:04:01.004Z,5.00
2018-12-04T21:06:31.686Z,4.90
2018-12-04T21:09:01.635Z,7.60
2018-12-04T21:11:31.736Z,9.93
2018-12-04T21:14:02.961Z,4.13
2018-12-04T21:16:33.733Z,3.60
2018-12-04T21:19:04.006Z,4.20
2018-12-04T21:21:35.127Z,4.73
2018-12-04T21:24:04.743Z,6.70
2018-12-04T21:26:36.989Z,3.67
2018-12-04T21:29:14.344Z,3.60
2018-12-04T21:31:51.481Z,9.57
2018-12-04T21:34:28.563Z,6.03
2018-12-04T21:37:04.029Z,8.40
2018-12-04T21:42:16.985Z,4.33
2018-12-04T21:44:54.245Z,7.20
2018-12-04T21:47:30.220Z,3.30
2018-12-04T21:50:00.030Z,7.23
2018-12-04T21:52:29.605Z,7.90
2018-12-04T21:54:59.134Z,11.60
2018-12-04T21:57:28.745Z,4.87
2018-12-04T22:00:09.072Z,5.87
2018-12-04T22:02:42.899Z,5.47
2018-12-04T22:05:14.114Z,5.33
2018-12-04T22:07:46.243Z,8.10
2018-12-04T22:10:18.743Z,6.90
2018-12-04T22:12:48.763Z,4.87
2018-12-04T22:15:19.020Z,5.90
2018-12-04T22:17:50.100Z,5.87
2018-12-04T22:20:21.060Z,5.67
2018-12-04T22:22:51.127Z,7.93
2018-12-04T22:25:22.344Z,3.07
2018-12-04T22:27:52.529Z,4.97
2018-12-04T22:30:22.924Z,4.70
2018-12-04T22:32:53.377Z,6.63
2018-12-04T22:35:23.983Z,5.80
2018-12-04T22:37:54.448Z,14.23
2018-12-04T22:40:24.892Z,3.53
2018-12-04T22:42:55.258Z,5.50
2018-12-04T22:45:26.877Z,7.63
2018-12-04T22:47:56.689Z,8.93
2018-12-04T22:50:27.176Z,7.07
2018-12-04T22:53:02.788Z,6.27
2018-12-04T22:55:35.370Z,8.03
2018-12-04T22:58:05.202Z,5.43
2018-12-04T23:00:42.517Z,5.90
2018-12-04T23:03:12.368Z,4.67
2018-12-04T23:05:42.228Z,4.30
2018-12-04T23:08:14.297Z,18.13
2018-12-04T23:10:44.852Z,12.80
2018-12-04T23:13:18.083Z,6.60
2018-12-04T23:15:48.739Z,6.47
2018-12-04T23:18:18.969Z,10.33
2018-12-04T23:20:50.185Z,6.00
2018-12-04T23:23:20.644Z,6.03
2018-12-04T23:25:51.548Z,6.53
2018-12-04T23:28:22.061Z,6.77
2018-12-04T23:30:58.590Z,15.83
2018-12-04T23:33:28.672Z,6.43
2018-12-04T23:36:01.566Z,7.63
2018-12-04T23:38:32.590Z,5.00
2018-12-04T23:41:04.447Z,3.77
2018-12-04T23:43:36.718Z,4.50
2018-12-04T23:46:08.616Z,8.10
2018-12-04T23:48:38.466Z,10.00
2018-12-04T23:51:09.623Z,3.47
2018-12-04T23:53:41.617Z,4.90
2018-12-04T23:56:13.307Z,6.33
2018-12-04T23:58:44.444Z,7.13
